Sloman Herakles — V2FY4 — position and weather

sailwx.info

Track history (hours):
 
Tides and Currents Weather Stations Pressure Air Temp Water Temp Dewpoint Dewpoint Depression Visibility Wind Speed Wind Dir Waves Ship Positions

Sloman Herakles

Last reported at 2016-Aug-25 15:33 UTC. Time now 2016-Aug-25 23:37 UTC.
Position N 35°58' W 005°36'.

Length 145 m; draft 8.8 m.

Type: Tanker. MMSI: 305851000.

Date/timePositionNaut miles runAvg speedWind from/ knotsBaromVisibWave heightAir tempDewpointWater temp
2016-Aug-25 15:33N 35°58' W 005°36'1111.4
2016-Aug-25 14:33N 36°01' W 005°22'  
2016-Aug-19 04:14N 36°57' W 001°37'912.9
2016-Aug-19 03:33N 36°50' W 001°43'1312.7
2016-Aug-19 02:33N 36°39' W 001°52'1712.6
2016-Aug-19 01:14N 36°26' W 002°04'811.5
2016-Aug-19 00:33N 36°22' W 002°13'1211.9
2016-Aug-18 23:33N 36°21' W 002°28'1312.5
2016-Aug-18 22:33N 36°19' W 002°43'11514.1
2016-Aug-18 14:22N 36°02' W 005°04'1214.9
2016-Aug-18 13:34N 36°02' W 005°19'6 5.9
2016-Aug-18 12:33N 36°06' W 005°24'0 0.0
2016-Aug-18 11:33N 36°06' W 005°25'0 0.0
2016-Aug-18 10:33N 36°06' W 005°25'0 0.0
2016-Aug-18 09:24N 36°06' W 005°25'0 0.1
2016-Aug-18 08:21N 36°06' W 005°24'0 0.1
2016-Aug-18 07:33N 36°06' W 005°24'5 4.7
2016-Aug-18 06:33N 36°05' W 005°19'2 1.8
2016-Aug-18 05:34N 36°06' W 005°17'2 1.9
2016-Aug-18 04:34N 36°05' W 005°19'4 4.1
2016-Aug-18 03:33N 36°02' W 005°23'1210.2
2016-Aug-18 02:20N 35°56' W 005°36'1013.1
2016-Aug-18 01:33N 35°55' W 005°49'11312.5
2016-Aug-17 16:30N 36°18' W 008°05'9912.2
2016-Aug-17 08:26N 37°14' W 009°47'5313.4
2016-Aug-17 04:30N 38°00' W 010°18'1313.5
2016-Aug-17 03:33N 38°12' W 010°26'3013.4
2016-Aug-17 01:20N 38°38' W 010°43'1313.0
2016-Aug-17 00:21N 38°51' W 010°44'1112.9
2016-Aug-16 23:29N 39°02' W 010°44'  
Track history (hours):
 
Tides and Currents Weather Stations Pressure Air Temp Water Temp Dewpoint Dewpoint Depression Visibility Wind Speed Wind Dir Waves Ship Positions

Sloman Herakles

Last reported at 2016-Aug-25 15:33 UTC. Time now 2016-Aug-25 23:37 UTC.
Position N 35°58' W 005°36'.

Length 145 m; draft 8.8 m.

Type: Tanker. MMSI: 305851000.

Date/timePositionNaut miles runAvg speedWind from/ knotsBaromVisibWave heightAir tempDewpointWater temp
2016-Aug-25 15:33N 35°58' W 005°36'1111.4
2016-Aug-25 14:33N 36°01' W 005°22'  
2016-Aug-19 04:14N 36°57' W 001°37'912.9
2016-Aug-19 03:33N 36°50' W 001°43'1312.7
2016-Aug-19 02:33N 36°39' W 001°52'1712.6
2016-Aug-19 01:14N 36°26' W 002°04'811.5
2016-Aug-19 00:33N 36°22' W 002°13'1211.9
2016-Aug-18 23:33N 36°21' W 002°28'1312.5
2016-Aug-18 22:33N 36°19' W 002°43'11514.1
2016-Aug-18 14:22N 36°02' W 005°04'1214.9
2016-Aug-18 13:34N 36°02' W 005°19'6 5.9
2016-Aug-18 12:33N 36°06' W 005°24'0 0.0
2016-Aug-18 11:33N 36°06' W 005°25'0 0.0
2016-Aug-18 10:33N 36°06' W 005°25'0 0.0
2016-Aug-18 09:24N 36°06' W 005°25'0 0.1
2016-Aug-18 08:21N 36°06' W 005°24'0 0.1
2016-Aug-18 07:33N 36°06' W 005°24'5 4.7
2016-Aug-18 06:33N 36°05' W 005°19'2 1.8
2016-Aug-18 05:34N 36°06' W 005°17'2 1.9
2016-Aug-18 04:34N 36°05' W 005°19'4 4.1
2016-Aug-18 03:33N 36°02' W 005°23'1210.2
2016-Aug-18 02:20N 35°56' W 005°36'1013.1
2016-Aug-18 01:33N 35°55' W 005°49'11312.5
2016-Aug-17 16:30N 36°18' W 008°05'9912.2
2016-Aug-17 08:26N 37°14' W 009°47'5313.4
2016-Aug-17 04:30N 38°00' W 010°18'1313.5
2016-Aug-17 03:33N 38°12' W 010°26'3013.4
2016-Aug-17 01:20N 38°38' W 010°43'1313.0
2016-Aug-17 00:21N 38°51' W 010°44'1112.9
2016-Aug-16 23:29N 39°02' W 010°44'  

Dump ship's entire track history